sensor_id;sensor_type;location;lat;lon;timestamp;P1;durP1;ratioP1;P2;durP2;ratioP2
12554;SDS011;6343;50.868;4.700;2023-05-10T00:02:02;9.93;;;4.67;;
12554;SDS011;6343;50.868;4.700;2023-05-10T00:04:28;6.00;;;4.30;;
12554;SDS011;6343;50.868;4.700;2023-05-10T00:06:54;7.97;;;4.80;;
12554;SDS011;6343;50.868;4.700;2023-05-10T00:09:20;8.20;;;4.47;;
12554;SDS011;6343;50.868;4.700;2023-05-10T00:11:46;10.17;;;4.33;;
12554;SDS011;6343;50.868;4.700;2023-05-10T00:14:13;5.00;;;3.93;;
12554;SDS011;6343;50.868;4.700;2023-05-10T00:16:39;9.40;;;4.30;;
12554;SDS011;6343;50.868;4.700;2023-05-10T00:19:05;7.23;;;4.40;;
12554;SDS011;6343;50.868;4.700;2023-05-10T00:21:31;7.80;;;4.70;;
12554;SDS011;6343;50.868;4.700;2023-05-10T00:23:58;10.73;;;4.73;;
12554;SDS011;6343;50.868;4.700;2023-05-10T00:26:24;10.80;;;5.30;;
12554;SDS011;6343;50.868;4.700;2023-05-10T00:28:50;14.73;;;4.90;;
12554;SDS011;6343;50.868;4.700;2023-05-10T00:31:16;10.50;;;5.23;;
12554;SDS011;6343;50.868;4.700;2023-05-10T00:33:43;9.27;;;4.73;;
12554;SDS011;6343;50.868;4.700;2023-05-10T00:36:09;11.47;;;5.23;;
12554;SDS011;6343;50.868;4.700;2023-05-10T00:38:35;8.47;;;5.23;;
12554;SDS011;6343;50.868;4.700;2023-05-10T00:41:01;8.90;;;4.53;;
12554;SDS011;6343;50.868;4.700;2023-05-10T00:43:27;11.43;;;5.47;;
12554;SDS011;6343;50.868;4.700;2023-05-10T00:45:53;9.40;;;5.50;;
12554;SDS011;6343;50.868;4.700;2023-05-10T00:48:20;7.00;;;4.63;;
12554;SDS011;6343;50.868;4.700;2023-05-10T00:50:46;11.73;;;5.40;;
12554;SDS011;6343;50.868;4.700;2023-05-10T00:53:13;8.57;;;5.30;;
12554;SDS011;6343;50.868;4.700;2023-05-10T00:55:40;6.67;;;4.50;;
12554;SDS011;6343;50.868;4.700;2023-05-10T00:58:06;8.60;;;4.93;;
12554;SDS011;6343;50.868;4.700;2023-05-10T01:00:33;9.70;;;5.57;;
12554;SDS011;6343;50.868;4.700;2023-05-10T01:02:59;11.40;;;5.40;;
12554;SDS011;6343;50.868;4.700;2023-05-10T01:05:26;8.20;;;4.53;;
12554;SDS011;6343;50.868;4.700;2023-05-10T01:07:52;11.30;;;5.10;;
12554;SDS011;6343;50.868;4.700;2023-05-10T01:10:18;10.47;;;4.60;;
12554;SDS011;6343;50.868;4.700;2023-05-10T01:12:45;8.80;;;4.83;;
12554;SDS011;6343;50.868;4.700;2023-05-10T01:15:12;7.47;;;5.10;;
12554;SDS011;6343;50.868;4.700;2023-05-10T01:17:40;10.10;;;5.10;;
12554;SDS011;6343;50.868;4.700;2023-05-10T01:20:07;11.10;;;5.37;;
12554;SDS011;6343;50.868;4.700;2023-05-10T01:33:01;11.23;;;5.43;;
12554;SDS011;6343;50.868;4.700;2023-05-10T01:38:17;9.00;;;5.57;;
12554;SDS011;6343;50.868;4.700;2023-05-10T01:41:07;12.90;;;6.77;;
12554;SDS011;6343;50.868;4.700;2023-05-10T01:43:48;10.77;;;6.17;;
12554;SDS011;6343;50.868;4.700;2023-05-10T01:46:16;10.80;;;6.53;;
12554;SDS011;6343;50.868;4.700;2023-05-10T01:48:51;13.07;;;6.60;;
12554;SDS011;6343;50.868;4.700;2023-05-10T01:51:23;12.13;;;6.27;;
12554;SDS011;6343;50.868;4.700;2023-05-10T01:53:50;13.10;;;7.40;;
12554;SDS011;6343;50.868;4.700;2023-05-10T01:56:18;13.40;;;6.83;;
12554;SDS011;6343;50.868;4.700;2023-05-10T01:58:46;12.27;;;6.43;;
12554;SDS011;6343;50.868;4.700;2023-05-10T02:01:13;14.50;;;6.73;;
12554;SDS011;6343;50.868;4.700;2023-05-10T02:03:39;13.37;;;6.20;;
12554;SDS011;6343;50.868;4.700;2023-05-10T02:06:06;12.50;;;6.83;;
12554;SDS011;6343;50.868;4.700;2023-05-10T02:08:33;13.63;;;6.87;;
12554;SDS011;6343;50.868;4.700;2023-05-10T02:11:02;12.40;;;7.53;;
12554;SDS011;6343;50.868;4.700;2023-05-10T02:13:29;9.60;;;6.90;;
12554;SDS011;6343;50.868;4.700;2023-05-10T02:15:55;11.37;;;6.47;;
12554;SDS011;6343;50.868;4.700;2023-05-10T02:18:22;15.53;;;8.70;;
12554;SDS011;6343;50.868;4.700;2023-05-10T02:20:49;9.10;;;6.57;;
12554;SDS011;6343;50.868;4.700;2023-05-10T02:23:16;14.57;;;7.43;;
12554;SDS011;6343;50.868;4.700;2023-05-10T02:25:43;12.10;;;8.00;;
12554;SDS011;6343;50.868;4.700;2023-05-10T02:28:09;13.50;;;7.43;;
12554;SDS011;6343;50.868;4.700;2023-05-10T02:30:36;11.80;;;7.13;;
12554;SDS011;6343;50.868;4.700;2023-05-10T02:33:03;9.97;;;6.47;;
12554;SDS011;6343;50.868;4.700;2023-05-10T02:35:30;13.17;;;7.17;;
12554;SDS011;6343;50.868;4.700;2023-05-10T02:37:58;12.27;;;6.80;;
12554;SDS011;6343;50.868;4.700;2023-05-10T02:40:25;12.20;;;7.37;;
12554;SDS011;6343;50.868;4.700;2023-05-10T02:42:52;12.43;;;7.10;;
12554;SDS011;6343;50.868;4.700;2023-05-10T02:45:20;13.93;;;8.17;;
12554;SDS011;6343;50.868;4.700;2023-05-10T02:47:47;13.03;;;7.70;;
12554;SDS011;6343;50.868;4.700;2023-05-10T02:50:14;16.93;;;7.43;;
12554;SDS011;6343;50.868;4.700;2023-05-10T02:52:42;11.30;;;7.10;;
12554;SDS011;6343;50.868;4.700;2023-05-10T02:55:11;11.03;;;7.33;;
12554;SDS011;6343;50.868;4.700;2023-05-10T02:57:39;13.07;;;7.10;;
12554;SDS011;6343;50.868;4.700;2023-05-10T03:00:06;13.47;;;7.67;;
12554;SDS011;6343;50.868;4.700;2023-05-10T03:02:33;11.37;;;7.33;;
12554;SDS011;6343;50.868;4.700;2023-05-10T03:04:59;12.80;;;7.27;;
12554;SDS011;6343;50.868;4.700;2023-05-10T03:07:25;12.77;;;7.07;;
12554;SDS011;6343;50.868;4.700;2023-05-10T03:09:51;11.77;;;7.00;;
12554;SDS011;6343;50.868;4.700;2023-05-10T03:12:38;13.70;;;6.87;;
12554;SDS011;6343;50.868;4.700;2023-05-10T03:18:21;14.80;;;7.70;;
12554;SDS011;6343;50.868;4.700;2023-05-10T03:20:27;14.43;;;7.30;;
12554;SDS011;6343;50.868;4.700;2023-05-10T03:22:55;15.13;;;8.20;;
12554;SDS011;6343;50.868;4.700;2023-05-10T03:25:26;10.83;;;7.27;;
12554;SDS011;6343;50.868;4.700;2023-05-10T03:27:52;9.97;;;7.10;;
12554;SDS011;6343;50.868;4.700;2023-05-10T03:30:19;12.20;;;7.03;;
12554;SDS011;6343;50.868;4.700;2023-05-10T03:32:45;13.67;;;7.77;;
12554;SDS011;6343;50.868;4.700;2023-05-10T03:35:12;12.27;;;7.37;;
12554;SDS011;6343;50.868;4.700;2023-05-10T03:37:39;12.67;;;7.50;;
12554;SDS011;6343;50.868;4.700;2023-05-10T03:40:05;11.17;;;6.97;;
12554;SDS011;6343;50.868;4.700;2023-05-10T03:42:32;10.60;;;7.43;;
12554;SDS011;6343;50.868;4.700;2023-05-10T03:44:58;17.40;;;7.60;;
12554;SDS011;6343;50.868;4.700;2023-05-10T03:47:24;13.23;;;7.40;;
12554;SDS011;6343;50.868;4.700;2023-05-10T03:49:50;11.53;;;7.87;;
12554;SDS011;6343;50.868;4.700;2023-05-10T03:52:16;16.27;;;8.27;;
12554;SDS011;6343;50.868;4.700;2023-05-10T03:54:43;12.63;;;6.90;;
12554;SDS011;6343;50.868;4.700;2023-05-10T03:57:09;14.27;;;8.17;;
12554;SDS011;6343;50.868;4.700;2023-05-10T03:59:35;14.30;;;8.10;;
12554;SDS011;6343;50.868;4.700;2023-05-10T04:02:01;15.90;;;8.40;;
12554;SDS011;6343;50.868;4.700;2023-05-10T04:04:27;13.67;;;8.03;;
12554;SDS011;6343;50.868;4.700;2023-05-10T04:06:53;13.33;;;7.80;;
12554;SDS011;6343;50.868;4.700;2023-05-10T04:09:19;11.03;;;7.43;;
12554;SDS011;6343;50.868;4.700;2023-05-10T04:11:46;13.83;;;7.57;;
12554;SDS011;6343;50.868;4.700;2023-05-10T04:14:12;14.53;;;8.00;;
12554;SDS011;6343;50.868;4.700;2023-05-10T04:16:38;14.20;;;8.37;;
12554;SDS011;6343;50.868;4.700;2023-05-10T04:19:04;16.03;;;9.03;;
12554;SDS011;6343;50.868;4.700;2023-05-10T04:21:30;16.03;;;10.53;;
12554;SDS011;6343;50.868;4.700;2023-05-10T04:23:56;14.40;;;8.97;;
12554;SDS011;6343;50.868;4.700;2023-05-10T04:26:23;15.27;;;9.83;;
12554;SDS011;6343;50.868;4.700;2023-05-10T04:28:50;16.57;;;9.90;;
12554;SDS011;6343;50.868;4.700;2023-05-10T04:31:16;15.30;;;10.37;;
12554;SDS011;6343;50.868;4.700;2023-05-10T04:33:42;16.03;;;10.50;;
12554;SDS011;6343;50.868;4.700;2023-05-10T04:36:08;14.43;;;9.47;;
12554;SDS011;6343;50.868;4.700;2023-05-10T04:38:34;15.97;;;10.03;;
12554;SDS011;6343;50.868;4.700;2023-05-10T04:41:07;17.60;;;10.60;;
12554;SDS011;6343;50.868;4.700;2023-05-10T04:43:34;19.60;;;10.47;;
12554;SDS011;6343;50.868;4.700;2023-05-10T04:46:00;16.83;;;11.17;;
12554;SDS011;6343;50.868;4.700;2023-05-10T04:48:26;17.20;;;11.27;;
12554;SDS011;6343;50.868;4.700;2023-05-10T04:50:52;19.57;;;11.93;;
12554;SDS011;6343;50.868;4.700;2023-05-10T04:53:18;17.93;;;11.10;;
12554;SDS011;6343;50.868;4.700;2023-05-10T04:55:45;17.00;;;10.97;;
12554;SDS011;6343;50.868;4.700;2023-05-10T04:58:12;17.83;;;11.40;;
12554;SDS011;6343;50.868;4.700;2023-05-10T05:00:38;19.97;;;12.00;;
12554;SDS011;6343;50.868;4.700;2023-05-10T05:03:04;22.33;;;11.50;;
12554;SDS011;6343;50.868;4.700;2023-05-10T05:05:31;21.30;;;12.00;;
12554;SDS011;6343;50.868;4.700;2023-05-10T05:07:57;22.57;;;12.27;;
12554;SDS011;6343;50.868;4.700;2023-05-10T05:10:23;17.30;;;11.30;;
12554;SDS011;6343;50.868;4.700;2023-05-10T05:12:49;22.87;;;12.47;;
12554;SDS011;6343;50.868;4.700;2023-05-10T05:15:15;19.80;;;12.43;;
12554;SDS011;6343;50.868;4.700;2023-05-10T05:17:42;21.90;;;12.97;;
12554;SDS011;6343;50.868;4.700;2023-05-10T05:20:08;19.07;;;12.20;;
12554;SDS011;6343;50.868;4.700;2023-05-10T05:22:38;17.63;;;12.43;;
12554;SDS011;6343;50.868;4.700;2023-05-10T05:25:04;19.37;;;13.00;;
12554;SDS011;6343;50.868;4.700;2023-05-10T05:27:31;21.93;;;13.00;;
12554;SDS011;6343;50.868;4.700;2023-05-10T05:29:57;20.43;;;13.07;;
12554;SDS011;6343;50.868;4.700;2023-05-10T05:32:23;20.57;;;12.77;;
12554;SDS011;6343;50.868;4.700;2023-05-10T05:34:50;18.87;;;12.10;;
12554;SDS011;6343;50.868;4.700;2023-05-10T05:37:16;20.13;;;12.50;;
12554;SDS011;6343;50.868;4.700;2023-05-10T05:39:43;23.87;;;13.90;;
12554;SDS011;6343;50.868;4.700;2023-05-10T05:42:09;22.70;;;13.77;;
12554;SDS011;6343;50.868;4.700;2023-05-10T05:44:36;21.20;;;13.03;;
12554;SDS011;6343;50.868;4.700;2023-05-10T05:47:02;19.63;;;12.63;;
12554;SDS011;6343;50.868;4.700;2023-05-10T05:49:28;17.20;;;12.23;;
12554;SDS011;6343;50.868;4.700;2023-05-10T05:51:58;22.17;;;11.93;;
12554;SDS011;6343;50.868;4.700;2023-05-10T05:54:24;21.43;;;14.30;;
12554;SDS011;6343;50.868;4.700;2023-05-10T05:56:53;20.83;;;13.33;;
12554;SDS011;6343;50.868;4.700;2023-05-10T05:59:19;22.50;;;12.93;;
12554;SDS011;6343;50.868;4.700;2023-05-10T06:01:45;22.67;;;13.00;;
12554;SDS011;6343;50.868;4.700;2023-05-10T06:04:11;20.93;;;12.53;;
12554;SDS011;6343;50.868;4.700;2023-05-10T06:06:37;16.57;;;12.13;;
12554;SDS011;6343;50.868;4.700;2023-05-10T06:09:04;19.17;;;12.27;;
12554;SDS011;6343;50.868;4.700;2023-05-10T06:11:30;19.67;;;11.97;;
12554;SDS011;6343;50.868;4.700;2023-05-10T06:13:57;17.97;;;12.33;;
12554;SDS011;6343;50.868;4.700;2023-05-10T06:16:24;18.73;;;12.33;;
12554;SDS011;6343;50.868;4.700;2023-05-10T06:18:50;20.30;;;13.20;;
12554;SDS011;6343;50.868;4.700;2023-05-10T06:21:16;19.00;;;12.13;;
12554;SDS011;6343;50.868;4.700;2023-05-10T06:23:42;21.70;;;11.97;;
12554;SDS011;6343;50.868;4.700;2023-05-10T06:26:09;19.40;;;11.00;;
12554;SDS011;6343;50.868;4.700;2023-05-10T06:28:35;17.20;;;10.83;;
12554;SDS011;6343;50.868;4.700;2023-05-10T06:31:03;20.43;;;12.30;;
12554;SDS011;6343;50.868;4.700;2023-05-10T06:33:30;19.80;;;11.77;;
12554;SDS011;6343;50.868;4.700;2023-05-10T06:35:56;22.93;;;13.07;;
12554;SDS011;6343;50.868;4.700;2023-05-10T06:38:22;24.33;;;11.43;;
12554;SDS011;6343;50.868;4.700;2023-05-10T06:40:48;18.10;;;11.77;;
12554;SDS011;6343;50.868;4.700;2023-05-10T06:43:14;20.50;;;12.93;;
12554;SDS011;6343;50.868;4.700;2023-05-10T06:45:40;17.67;;;11.83;;
12554;SDS011;6343;50.868;4.700;2023-05-10T06:48:07;17.00;;;10.30;;
12554;SDS011;6343;50.868;4.700;2023-05-10T06:50:33;12.63;;;8.67;;
12554;SDS011;6343;50.868;4.700;2023-05-10T06:52:59;14.30;;;8.47;;
12554;SDS011;6343;50.868;4.700;2023-05-10T06:55:27;13.97;;;6.97;;
12554;SDS011;6343;50.868;4.700;2023-05-10T06:57:53;9.70;;;6.47;;
12554;SDS011;6343;50.868;4.700;2023-05-10T07:00:19;6.33;;;5.20;;
12554;SDS011;6343;50.868;4.700;2023-05-10T07:02:46;8.73;;;5.03;;
12554;SDS011;6343;50.868;4.700;2023-05-10T07:05:12;6.33;;;3.90;;
12554;SDS011;6343;50.868;4.700;2023-05-10T07:07:39;5.40;;;3.30;;
12554;SDS011;6343;50.868;4.700;2023-05-10T07:10:05;3.63;;;2.90;;
12554;SDS011;6343;50.868;4.700;2023-05-10T07:12:32;5.40;;;2.90;;
12554;SDS011;6343;50.868;4.700;2023-05-10T07:14:58;9.50;;;3.37;;
12554;SDS011;6343;50.868;4.700;2023-05-10T07:17:24;8.37;;;3.60;;
12554;SDS011;6343;50.868;4.700;2023-05-10T07:19:50;5.03;;;3.50;;
12554;SDS011;6343;50.868;4.700;2023-05-10T07:22:17;6.73;;;3.97;;
12554;SDS011;6343;50.868;4.700;2023-05-10T07:24:43;4.30;;;3.30;;
12554;SDS011;6343;50.868;4.700;2023-05-10T07:27:09;11.53;;;4.30;;
12554;SDS011;6343;50.868;4.700;2023-05-10T07:29:35;6.80;;;3.77;;
12554;SDS011;6343;50.868;4.700;2023-05-10T07:32:02;6.33;;;3.50;;
12554;SDS011;6343;50.868;4.700;2023-05-10T07:34:28;3.40;;;2.57;;
12554;SDS011;6343;50.868;4.700;2023-05-10T07:36:56;5.13;;;3.00;;
12554;SDS011;6343;50.868;4.700;2023-05-10T07:39:22;6.60;;;3.10;;
12554;SDS011;6343;50.868;4.700;2023-05-10T07:41:48;4.63;;;3.10;;
12554;SDS011;6343;50.868;4.700;2023-05-10T07:44:15;4.03;;;2.60;;
12554;SDS011;6343;50.868;4.700;2023-05-10T07:46:43;2.83;;;2.17;;
12554;SDS011;6343;50.868;4.700;2023-05-10T07:49:09;4.87;;;3.20;;
12554;SDS011;6343;50.868;4.700;2023-05-10T07:51:35;5.43;;;2.07;;
12554;SDS011;6343;50.868;4.700;2023-05-10T07:54:01;3.60;;;2.57;;
12554;SDS011;6343;50.868;4.700;2023-05-10T07:56:29;4.17;;;2.70;;
12554;SDS011;6343;50.868;4.700;2023-05-10T07:58:56;4.23;;;2.83;;
12554;SDS011;6343;50.868;4.700;2023-05-10T08:01:23;6.53;;;3.10;;
12554;SDS011;6343;50.868;4.700;2023-05-10T08:03:49;6.63;;;3.70;;
12554;SDS011;6343;50.868;4.700;2023-05-10T08:06:16;5.33;;;3.23;;
12554;SDS011;6343;50.868;4.700;2023-05-10T08:08:43;9.03;;;3.57;;
12554;SDS011;6343;50.868;4.700;2023-05-10T08:11:10;7.20;;;3.70;;
12554;SDS011;6343;50.868;4.700;2023-05-10T08:13:36;7.87;;;4.20;;
12554;SDS011;6343;50.868;4.700;2023-05-10T08:16:02;8.10;;;4.70;;
12554;SDS011;6343;50.868;4.700;2023-05-10T08:18:28;8.20;;;4.57;;
12554;SDS011;6343;50.868;4.700;2023-05-10T08:20:55;10.33;;;5.50;;
12554;SDS011;6343;50.868;4.700;2023-05-10T08:23:21;9.90;;;5.67;;
12554;SDS011;6343;50.868;4.700;2023-05-10T08:25:47;10.50;;;6.33;;
12554;SDS011;6343;50.868;4.700;2023-05-10T08:28:13;11.10;;;7.10;;
12554;SDS011;6343;50.868;4.700;2023-05-10T08:30:40;8.33;;;5.70;;
12554;SDS011;6343;50.868;4.700;2023-05-10T08:33:06;7.97;;;5.43;;
12554;SDS011;6343;50.868;4.700;2023-05-10T08:35:32;9.43;;;5.70;;
12554;SDS011;6343;50.868;4.700;2023-05-10T08:38:00;8.97;;;5.13;;
12554;SDS011;6343;50.868;4.700;2023-05-10T08:40:26;9.20;;;5.97;;
12554;SDS011;6343;50.868;4.700;2023-05-10T08:43:02;9.60;;;5.30;;
12554;SDS011;6343;50.868;4.700;2023-05-10T08:45:32;11.17;;;5.70;;
12554;SDS011;6343;50.868;4.700;2023-05-10T08:47:59;9.80;;;5.80;;
12554;SDS011;6343;50.868;4.700;2023-05-10T08:50:27;9.23;;;5.50;;
12554;SDS011;6343;50.868;4.700;2023-05-10T08:52:53;11.27;;;5.53;;
12554;SDS011;6343;50.868;4.700;2023-05-10T08:55:21;14.93;;;5.97;;
12554;SDS011;6343;50.868;4.700;2023-05-10T08:57:49;10.97;;;5.43;;
12554;SDS011;6343;50.868;4.700;2023-05-10T09:00:15;11.47;;;6.13;;
12554;SDS011;6343;50.868;4.700;2023-05-10T09:02:42;14.43;;;5.20;;
12554;SDS011;6343;50.868;4.700;2023-05-10T09:05:10;8.70;;;5.50;;
12554;SDS011;6343;50.868;4.700;2023-05-10T09:07:37;6.17;;;4.70;;
12554;SDS011;6343;50.868;4.700;2023-05-10T09:10:03;8.27;;;4.27;;
12554;SDS011;6343;50.868;4.700;2023-05-10T09:12:30;6.97;;;4.63;;
12554;SDS011;6343;50.868;4.700;2023-05-10T09:14:56;7.30;;;4.70;;
12554;SDS011;6343;50.868;4.700;2023-05-10T09:17:23;7.73;;;4.67;;
12554;SDS011;6343;50.868;4.700;2023-05-10T09:19:50;5.10;;;3.60;;
12554;SDS011;6343;50.868;4.700;2023-05-10T09:22:16;8.50;;;4.30;;
12554;SDS011;6343;50.868;4.700;2023-05-10T09:24:42;9.07;;;4.20;;
12554;SDS011;6343;50.868;4.700;2023-05-10T09:27:10;6.00;;;4.30;;
12554;SDS011;6343;50.868;4.700;2023-05-10T09:29:39;6.07;;;3.27;;
12554;SDS011;6343;50.868;4.700;2023-05-10T09:32:05;6.13;;;3.93;;
12554;SDS011;6343;50.868;4.700;2023-05-10T09:34:32;5.83;;;3.63;;
12554;SDS011;6343;50.868;4.700;2023-05-10T09:37:00;5.70;;;4.00;;
12554;SDS011;6343;50.868;4.700;2023-05-10T09:39:31;6.17;;;3.20;;
12554;SDS011;6343;50.868;4.700;2023-05-10T09:41:58;5.10;;;3.17;;
12554;SDS011;6343;50.868;4.700;2023-05-10T09:44:26;6.30;;;3.37;;
12554;SDS011;6343;50.868;4.700;2023-05-10T09:46:52;6.47;;;3.37;;
12554;SDS011;6343;50.868;4.700;2023-05-10T09:49:19;4.40;;;2.93;;
12554;SDS011;6343;50.868;4.700;2023-05-10T09:51:45;6.73;;;2.70;;
12554;SDS011;6343;50.868;4.700;2023-05-10T09:54:12;5.97;;;2.40;;
12554;SDS011;6343;50.868;4.700;2023-05-10T09:56:38;5.30;;;2.30;;
12554;SDS011;6343;50.868;4.700;2023-05-10T09:59:06;3.20;;;2.23;;
12554;SDS011;6343;50.868;4.700;2023-05-10T10:01:33;6.37;;;2.20;;
12554;SDS011;6343;50.868;4.700;2023-05-10T10:03:59;7.63;;;2.30;;
12554;SDS011;6343;50.868;4.700;2023-05-10T10:06:28;4.57;;;2.10;;
12554;SDS011;6343;50.868;4.700;2023-05-10T10:08:54;2.67;;;1.60;;
12554;SDS011;6343;50.868;4.700;2023-05-10T10:11:21;5.53;;;1.80;;
12554;SDS011;6343;50.868;4.700;2023-05-10T10:13:48;3.43;;;2.00;;
12554;SDS011;6343;50.868;4.700;2023-05-10T10:16:14;3.27;;;2.13;;
12554;SDS011;6343;50.868;4.700;2023-05-10T10:18:41;2.63;;;1.80;;
12554;SDS011;6343;50.868;4.700;2023-05-10T10:21:07;7.20;;;2.20;;
12554;SDS011;6343;50.868;4.700;2023-05-10T10:23:36;3.70;;;2.10;;
12554;SDS011;6343;50.868;4.700;2023-05-10T10:26:03;4.40;;;1.90;;
12554;SDS011;6343;50.868;4.700;2023-05-10T10:30:56;2.47;;;1.73;;
12554;SDS011;6343;50.868;4.700;2023-05-10T10:36:11;2.30;;;2.10;;
12554;SDS011;6343;50.868;4.700;2023-05-10T10:41:10;2.33;;;1.63;;
12554;SDS011;6343;50.868;4.700;2023-05-10T10:46:57;4.47;;;2.33;;
12554;SDS011;6343;50.868;4.700;2023-05-10T10:49:23;4.23;;;1.90;;
12554;SDS011;6343;50.868;4.700;2023-05-10T10:54:34;2.37;;;1.40;;
12554;SDS011;6343;50.868;4.700;2023-05-10T10:57:13;2.33;;;1.30;;
12554;SDS011;6343;50.868;4.700;2023-05-10T10:59:43;1.60;;;1.40;;
12554;SDS011;6343;50.868;4.700;2023-05-10T11:02:09;2.40;;;1.70;;
12554;SDS011;6343;50.868;4.700;2023-05-10T11:04:42;1.40;;;1.30;;
12554;SDS011;6343;50.868;4.700;2023-05-10T11:07:17;1.43;;;1.33;;
12554;SDS011;6343;50.868;4.700;2023-05-10T11:09:44;2.83;;;1.40;;
12554;SDS011;6343;50.868;4.700;2023-05-10T11:12:11;1.27;;;1.17;;
12554;SDS011;6343;50.868;4.700;2023-05-10T11:14:37;2.40;;;1.37;;
12554;SDS011;6343;50.868;4.700;2023-05-10T11:17:26;2.67;;;1.40;;
12554;SDS011;6343;50.868;4.700;2023-05-10T11:20:07;1.20;;;1.10;;
12554;SDS011;6343;50.868;4.700;2023-05-10T11:22:50;1.13;;;1.03;;
12554;SDS011;6343;50.868;4.700;2023-05-10T11:25:17;1.47;;;1.20;;
12554;SDS011;6343;50.868;4.700;2023-05-10T11:27:43;1.43;;;0.87;;
12554;SDS011;6343;50.868;4.700;2023-05-10T11:30:10;2.17;;;1.07;;
12554;SDS011;6343;50.868;4.700;2023-05-10T11:32:38;1.90;;;1.33;;
12554;SDS011;6343;50.868;4.700;2023-05-10T11:35:07;2.20;;;1.10;;
12554;SDS011;6343;50.868;4.700;2023-05-10T11:37:34;2.03;;;1.80;;
12554;SDS011;6343;50.868;4.700;2023-05-10T11:40:00;1.43;;;1.33;;
12554;SDS011;6343;50.868;4.700;2023-05-10T11:42:29;6.80;;;1.20;;
12554;SDS011;6343;50.868;4.700;2023-05-10T11:44:55;1.53;;;1.03;;
12554;SDS011;6343;50.868;4.700;2023-05-10T11:47:21;1.47;;;1.10;;
12554;SDS011;6343;50.868;4.700;2023-05-10T11:49:48;1.20;;;1.10;;
12554;SDS011;6343;50.868;4.700;2023-05-10T11:52:14;1.20;;;1.10;;
12554;SDS011;6343;50.868;4.700;2023-05-10T11:54:52;2.03;;;1.20;;
12554;SDS011;6343;50.868;4.700;2023-05-10T11:57:19;10.20;;;1.90;;
12554;SDS011;6343;50.868;4.700;2023-05-10T11:59:52;5.70;;;1.40;;
12554;SDS011;6343;50.868;4.700;2023-05-10T12:02:20;18.10;;;2.43;;
12554;SDS011;6343;50.868;4.700;2023-05-10T12:04:46;1.50;;;1.30;;
12554;SDS011;6343;50.868;4.700;2023-05-10T12:07:12;2.20;;;1.60;;
12554;SDS011;6343;50.868;4.700;2023-05-10T12:09:42;1.50;;;1.40;;
12554;SDS011;6343;50.868;4.700;2023-05-10T12:12:09;25.00;;;4.87;;
12554;SDS011;6343;50.868;4.700;2023-05-10T12:14:35;5.07;;;3.33;;
12554;SDS011;6343;50.868;4.700;2023-05-10T12:17:01;21.40;;;4.90;;
12554;SDS011;6343;50.868;4.700;2023-05-10T12:19:27;12.30;;;5.63;;
12554;SDS011;6343;50.868;4.700;2023-05-10T12:21:53;2.20;;;2.00;;
12554;SDS011;6343;50.868;4.700;2023-05-10T12:24:20;20.57;;;4.93;;
12554;SDS011;6343;50.868;4.700;2023-05-10T12:26:46;14.77;;;8.30;;
12554;SDS011;6343;50.868;4.700;2023-05-10T12:29:14;14.03;;;9.20;;
12554;SDS011;6343;50.868;4.700;2023-05-10T12:34:37;9.53;;;6.80;;
12554;SDS011;6343;50.868;4.700;2023-05-10T12:37:03;24.93;;;12.20;;
12554;SDS011;6343;50.868;4.700;2023-05-10T12:39:40;16.30;;;11.03;;
12554;SDS011;6343;50.868;4.700;2023-05-10T12:42:07;21.87;;;15.30;;
12554;SDS011;6343;50.868;4.700;2023-05-10T12:44:33;33.97;;;13.43;;
12554;SDS011;6343;50.868;4.700;2023-05-10T12:46:59;20.10;;;6.00;;
12554;SDS011;6343;50.868;4.700;2023-05-10T12:49:25;6.60;;;5.13;;
12554;SDS011;6343;50.868;4.700;2023-05-10T12:51:51;11.57;;;6.93;;
12554;SDS011;6343;50.868;4.700;2023-05-10T12:54:17;25.20;;;16.23;;
12554;SDS011;6343;50.868;4.700;2023-05-10T12:56:43;26.93;;;14.77;;
12554;SDS011;6343;50.868;4.700;2023-05-10T12:59:10;21.00;;;14.00;;
12554;SDS011;6343;50.868;4.700;2023-05-10T13:01:36;18.83;;;12.13;;
12554;SDS011;6343;50.868;4.700;2023-05-10T13:04:02;23.53;;;12.77;;
12554;SDS011;6343;50.868;4.700;2023-05-10T13:06:28;2.93;;;2.60;;
12554;SDS011;6343;50.868;4.700;2023-05-10T13:08:54;16.27;;;6.97;;
12554;SDS011;6343;50.868;4.700;2023-05-10T13:11:20;28.40;;;13.00;;
12554;SDS011;6343;50.868;4.700;2023-05-10T13:13:46;9.33;;;6.60;;
12554;SDS011;6343;50.868;4.700;2023-05-10T13:16:12;13.20;;;8.17;;
12554;SDS011;6343;50.868;4.700;2023-05-10T13:18:38;18.97;;;12.30;;
12554;SDS011;6343;50.868;4.700;2023-05-10T13:21:05;25.17;;;15.07;;
12554;SDS011;6343;50.868;4.700;2023-05-10T13:23:31;42.23;;;10.97;;
12554;SDS011;6343;50.868;4.700;2023-05-10T13:25:57;4.93;;;3.27;;
12554;SDS011;6343;50.868;4.700;2023-05-10T13:28:23;14.27;;;8.70;;
12554;SDS011;6343;50.868;4.700;2023-05-10T13:30:51;26.63;;;16.83;;
12554;SDS011;6343;50.868;4.700;2023-05-10T13:33:17;15.13;;;8.53;;
12554;SDS011;6343;50.868;4.700;2023-05-10T13:35:43;9.33;;;5.50;;
12554;SDS011;6343;50.868;4.700;2023-05-10T13:38:09;3.13;;;2.70;;
12554;SDS011;6343;50.868;4.700;2023-05-10T13:40:37;7.33;;;3.60;;
12554;SDS011;6343;50.868;4.700;2023-05-10T13:43:03;2.43;;;1.90;;
12554;SDS011;6343;50.868;4.700;2023-05-10T13:45:29;5.03;;;3.47;;
12554;SDS011;6343;50.868;4.700;2023-05-10T13:47:55;4.97;;;3.57;;
12554;SDS011;6343;50.868;4.700;2023-05-10T13:50:22;5.00;;;2.97;;
12554;SDS011;6343;50.868;4.700;2023-05-10T13:52:48;8.53;;;3.50;;
12554;SDS011;6343;50.868;4.700;2023-05-10T13:55:14;2.00;;;1.80;;
12554;SDS011;6343;50.868;4.700;2023-05-10T13:57:41;4.80;;;2.93;;
12554;SDS011;6343;50.868;4.700;2023-05-10T14:00:08;12.60;;;4.90;;
12554;SDS011;6343;50.868;4.700;2023-05-10T14:02:34;19.67;;;4.67;;
12554;SDS011;6343;50.868;4.700;2023-05-10T14:05:34;7.73;;;4.77;;
12554;SDS011;6343;50.868;4.700;2023-05-10T14:08:00;5.13;;;3.33;;
12554;SDS011;6343;50.868;4.700;2023-05-10T14:10:26;5.87;;;2.33;;
12554;SDS011;6343;50.868;4.700;2023-05-10T14:12:53;4.63;;;1.90;;
12554;SDS011;6343;50.868;4.700;2023-05-10T14:15:19;2.53;;;1.70;;
12554;SDS011;6343;50.868;4.700;2023-05-10T14:17:45;12.70;;;3.73;;
12554;SDS011;6343;50.868;4.700;2023-05-10T14:20:11;7.63;;;4.43;;
12554;SDS011;6343;50.868;4.700;2023-05-10T14:22:37;4.63;;;3.07;;
12554;SDS011;6343;50.868;4.700;2023-05-10T14:25:03;6.23;;;3.00;;
12554;SDS011;6343;50.868;4.700;2023-05-10T14:27:29;4.03;;;2.40;;
12554;SDS011;6343;50.868;4.700;2023-05-10T14:29:55;3.97;;;2.10;;
12554;SDS011;6343;50.868;4.700;2023-05-10T14:32:22;3.20;;;2.27;;
12554;SDS011;6343;50.868;4.700;2023-05-10T14:34:48;6.07;;;3.90;;
12554;SDS011;6343;50.868;4.700;2023-05-10T14:37:14;3.83;;;2.40;;
12554;SDS011;6343;50.868;4.700;2023-05-10T14:39:40;5.57;;;2.57;;
12554;SDS011;6343;50.868;4.700;2023-05-10T14:42:07;3.77;;;2.90;;
12554;SDS011;6343;50.868;4.700;2023-05-10T14:44:34;4.50;;;3.00;;
12554;SDS011;6343;50.868;4.700;2023-05-10T14:47:00;8.30;;;3.10;;
12554;SDS011;6343;50.868;4.700;2023-05-10T14:49:26;3.77;;;2.80;;
12554;SDS011;6343;50.868;4.700;2023-05-10T14:51:52;6.33;;;3.07;;
12554;SDS011;6343;50.868;4.700;2023-05-10T14:54:18;3.93;;;2.73;;
12554;SDS011;6343;50.868;4.700;2023-05-10T14:56:45;6.90;;;2.63;;
12554;SDS011;6343;50.868;4.700;2023-05-10T14:59:13;6.63;;;3.60;;
12554;SDS011;6343;50.868;4.700;2023-05-10T15:01:39;4.90;;;2.87;;
12554;SDS011;6343;50.868;4.700;2023-05-10T15:04:07;4.37;;;3.30;;
12554;SDS011;6343;50.868;4.700;2023-05-10T15:06:34;2.97;;;2.40;;
12554;SDS011;6343;50.868;4.700;2023-05-10T15:09:00;5.50;;;2.83;;
12554;SDS011;6343;50.868;4.700;2023-05-10T15:11:26;3.67;;;2.73;;
12554;SDS011;6343;50.868;4.700;2023-05-10T15:13:53;4.97;;;2.70;;
12554;SDS011;6343;50.868;4.700;2023-05-10T15:16:19;6.07;;;2.87;;
12554;SDS011;6343;50.868;4.700;2023-05-10T15:18:45;4.80;;;3.00;;
12554;SDS011;6343;50.868;4.700;2023-05-10T15:21:11;4.73;;;3.60;;
12554;SDS011;6343;50.868;4.700;2023-05-10T15:23:37;3.60;;;2.87;;
12554;SDS011;6343;50.868;4.700;2023-05-10T15:26:04;7.73;;;3.70;;